createdAt,value
2023-10-30T00:00:36.313Z,94407.18
2023-10-30T00:03:24.328Z,94405.18
2023-10-30T00:05:52.009Z,94407.18
2023-10-30T00:08:20.572Z,94410.66
2023-10-30T00:10:48.409Z,94409.98
2023-10-30T00:13:16.257Z,94414.34
2023-10-30T00:15:43.990Z,94422.39
2023-10-30T00:18:12.221Z,94426.65
2023-10-30T00:20:39.885Z,94432.16
2023-10-30T00:23:07.619Z,94437.14
2023-10-30T00:25:35.401Z,94437.67
2023-10-30T00:28:03.355Z,94446.45
2023-10-30T00:30:31.405Z,94450.55
2023-10-30T00:32:59.288Z,94452.64
2023-10-30T00:35:27.311Z,94452.67
2023-10-30T00:37:55.042Z,94451.16
2023-10-30T00:40:22.694Z,94450.88
2023-10-30T00:42:50.387Z,94450.27
2023-10-30T00:45:18.380Z,94452.09
2023-10-30T00:47:46.095Z,94444.36
2023-10-30T00:50:14.270Z,94445.61
2023-10-30T00:52:42.620Z,94446.45
2023-10-30T00:55:10.634Z,94451.05
2023-10-30T00:57:38.315Z,94452.89
2023-10-30T01:00:07.144Z,94446.58
2023-10-30T01:02:35.084Z,94445.27
2023-10-30T01:05:04.257Z,94444.80
2023-10-30T01:07:32.114Z,94447.21
2023-10-30T01:09:59.867Z,94446.23
2023-10-30T01:12:27.776Z,94444.38
2023-10-30T01:14:55.623Z,94440.19
2023-10-30T01:17:23.910Z,94435.98
2023-10-30T01:19:51.523Z,94441.80
2023-10-30T01:22:19.312Z,94445.28
2023-10-30T01:24:46.947Z,94449.28
2023-10-30T01:27:14.629Z,94448.11
2023-10-30T01:29:42.499Z,94447.13
2023-10-30T01:32:10.671Z,94445.31
2023-10-30T01:34:38.416Z,94452.01
2023-10-30T01:37:06.275Z,94455.31
2023-10-30T01:39:34.184Z,94456.45
2023-10-30T01:42:02.082Z,94465.35
2023-10-30T01:44:29.979Z,94469.90
2023-10-30T01:46:57.898Z,94472.30
2023-10-30T01:49:25.520Z,94462.88
2023-10-30T01:51:53.154Z,94468.48
2023-10-30T01:54:20.936Z,94467.02
2023-10-30T01:56:49.152Z,94469.84
2023-10-30T01:59:17.325Z,94472.26
2023-10-30T02:01:44.983Z,94480.45
2023-10-30T02:04:13.572Z,94481.92
2023-10-30T02:06:41.442Z,94489.27
2023-10-30T02:09:09.272Z,94484.75
2023-10-30T02:11:37.593Z,94481.66
2023-10-30T02:14:05.463Z,94482.18
2023-10-30T02:16:33.269Z,94481.66
2023-10-30T02:19:01.086Z,94484.54
2023-10-30T02:21:28.916Z,94482.81
2023-10-30T02:24:06.230Z,94480.48
2023-10-30T02:26:33.964Z,94481.63
2023-10-30T02:29:03.903Z,94481.34
2023-10-30T02:31:33.818Z,94478.09
2023-10-30T02:34:01.746Z,94483.48
2023-10-30T02:36:30.589Z,94484.69
2023-10-30T02:38:58.487Z,94484.92
2023-10-30T02:41:30.462Z,94482.17
2023-10-30T02:43:59.307Z,94482.29
2023-10-30T02:46:28.281Z,94479.23
2023-10-30T02:48:56.630Z,94477.47
2023-10-30T02:51:24.552Z,94473.62
2023-10-30T02:53:52.276Z,94475.23
2023-10-30T02:56:20.256Z,94478.89
2023-10-30T02:58:48.265Z,94477.45
2023-10-30T03:01:16.011Z,94476.11
2023-10-30T03:03:44.271Z,94480.19
2023-10-30T03:06:12.173Z,94477.94
2023-10-30T03:08:39.973Z,94479.70
2023-10-30T03:11:08.664Z,94481.84
2023-10-30T03:13:36.611Z,94486.89
2023-10-30T03:16:05.046Z,94491.42
2023-10-30T03:18:32.759Z,94486.04
2023-10-30T03:21:01.181Z,94488.35
2023-10-30T03:23:29.307Z,94490.02
2023-10-30T03:25:57.222Z,94492.89
2023-10-30T03:28:24.917Z,94493.05
2023-10-30T03:30:52.754Z,94491.48
2023-10-30T03:33:21.905Z,94488.21
2023-10-30T03:35:50.096Z,94488.91
2023-10-30T03:38:17.888Z,94492.73
2023-10-30T03:40:45.577Z,94495.09
2023-10-30T03:43:16.726Z,94496.53
2023-10-30T03:45:45.443Z,94493.55
2023-10-30T03:48:13.272Z,94496.96
2023-10-30T03:50:41.603Z,94504.14
2023-10-30T03:53:09.164Z,94506.28
2023-10-30T03:55:36.984Z,94508.89
2023-10-30T03:58:06.048Z,94504.95
2023-10-30T04:00:33.957Z,94508.71
2023-10-30T04:03:01.678Z,94503.84
2023-10-30T04:05:30.426Z,94506.15
2023-10-30T04:07:58.120Z,94503.86
2023-10-30T04:10:26.001Z,94502.66
2023-10-30T04:12:54.049Z,94502.21
2023-10-30T04:15:22.053Z,94502.89
2023-10-30T04:17:50.896Z,94505.64
2023-10-30T04:20:19.082Z,94514.85
2023-10-30T04:22:50.695Z,94514.08
2023-10-30T04:25:19.113Z,94518.40
2023-10-30T04:27:46.820Z,94516.55
2023-10-30T04:30:15.113Z,94517.95
2023-10-30T04:32:43.205Z,94518.06
2023-10-30T04:35:10.970Z,94515.12
2023-10-30T04:37:39.248Z,94512.13
2023-10-30T04:40:08.165Z,94517.16
2023-10-30T04:42:35.812Z,94516.37
2023-10-30T04:45:03.831Z,94517.59
2023-10-30T04:47:31.438Z,94516.99
2023-10-30T04:49:59.188Z,94511.33
2023-10-30T04:52:27.380Z,94507.95
2023-10-30T04:54:55.330Z,94510.07
2023-10-30T04:57:23.038Z,94507.02
2023-10-30T04:59:51.292Z,94504.51
2023-10-30T05:02:19.583Z,94507.06
2023-10-30T05:04:47.149Z,94504.15
2023-10-30T05:07:14.775Z,94505.83
2023-10-30T05:09:42.650Z,94505.02
2023-10-30T05:12:10.376Z,94501.83
2023-10-30T05:14:38.135Z,94497.04
2023-10-30T05:17:05.793Z,94502.34
2023-10-30T05:19:33.694Z,94507.39
2023-10-30T05:22:01.772Z,94503.31
2023-10-30T05:24:29.572Z,94501.23
2023-10-30T05:26:57.843Z,94508.77
2023-10-30T05:29:25.902Z,94512.98
2023-10-30T05:31:53.576Z,94509.09
2023-10-30T05:34:21.229Z,94502.64
2023-10-30T05:36:49.058Z,94502.10
2023-10-30T05:39:17.139Z,94498.10
2023-10-30T05:41:44.823Z,94487.20
2023-10-30T05:44:12.619Z,94486.16
2023-10-30T05:46:40.754Z,94482.04
2023-10-30T05:49:08.982Z,94487.73
2023-10-30T05:51:37.064Z,94495.08
2023-10-30T05:54:05.117Z,94504.90
2023-10-30T05:56:33.182Z,94505.60
2023-10-30T05:59:01.291Z,94511.78
2023-10-30T06:01:29.268Z,94521.27
2023-10-30T06:03:57.566Z,94524.05
2023-10-30T06:06:25.470Z,94536.70
2023-10-30T06:08:53.096Z,94541.42
2023-10-30T06:11:21.249Z,94541.62
2023-10-30T06:13:49.374Z,94544.57
2023-10-30T06:16:22.036Z,94554.10
2023-10-30T06:18:49.816Z,94556.22
2023-10-30T06:21:19.201Z,94554.40
2023-10-30T06:23:47.029Z,94553.33
2023-10-30T06:26:15.072Z,94544.75
2023-10-30T06:28:43.556Z,94539.38
2023-10-30T06:31:19.945Z,94540.95
2023-10-30T06:33:48.086Z,94539.36
2023-10-30T06:36:16.785Z,94540.98
2023-10-30T06:38:44.546Z,94546.84
2023-10-30T06:41:12.357Z,94542.98
2023-10-30T06:43:40.811Z,94542.39
2023-10-30T06:46:09.539Z,94548.64
2023-10-30T06:48:37.288Z,94544.30
2023-10-30T06:51:05.969Z,94546.21
2023-10-30T06:53:33.771Z,94558.04
2023-10-30T06:56:02.206Z,94562.55
2023-10-30T06:58:29.898Z,94566.01
2023-10-30T07:01:04.934Z,94563.73
2023-10-30T07:03:37.342Z,94569.50
2023-10-30T07:06:05.817Z,94571.14
2023-10-30T07:08:33.380Z,94581.36
2023-10-30T07:11:01.332Z,94586.10
2023-10-30T07:13:29.432Z,94588.16
2023-10-30T07:15:57.481Z,94584.77
2023-10-30T07:18:26.177Z,94584.98
2023-10-30T07:20:54.027Z,94585.87
2023-10-30T07:23:21.882Z,94587.45
2023-10-30T07:25:50.170Z,94595.39
2023-10-30T07:28:18.103Z,94599.02
2023-10-30T07:30:45.964Z,94600.17
2023-10-30T07:33:13.750Z,94600.49
2023-10-30T07:35:41.539Z,94597.61
2023-10-30T07:38:09.610Z,94599.77
2023-10-30T07:40:37.430Z,94605.79
2023-10-30T07:43:05.205Z,94603.46
2023-10-30T07:45:32.989Z,94609.02
2023-10-30T07:48:00.818Z,94603.10
2023-10-30T07:50:29.093Z,94607.18
2023-10-30T07:52:57.608Z,94606.17
2023-10-30T07:55:25.385Z,94605.84
2023-10-30T07:57:53.088Z,94607.30
2023-10-30T08:00:21.168Z,94605.74
2023-10-30T08:02:50.315Z,94602.86
2023-10-30T08:05:18.671Z,94602.86
2023-10-30T08:07:46.849Z,94601.38
2023-10-30T08:10:15.288Z,94601.17
2023-10-30T08:12:43.166Z,94593.50
2023-10-30T08:15:11.838Z,94596.48
2023-10-30T08:17:39.707Z,94596.52
2023-10-30T08:20:08.264Z,94592.29
2023-10-30T08:22:35.936Z,94592.12
2023-10-30T08:25:04.283Z,94595.65
2023-10-30T08:27:32.999Z,94588.91
2023-10-30T08:30:01.889Z,94576.58
2023-10-30T08:32:29.860Z,94566.97
2023-10-30T08:34:58.078Z,94567.95
2023-10-30T08:37:25.760Z,94566.52
2023-10-30T08:39:53.675Z,94561.92
2023-10-30T08:42:21.504Z,94559.65
2023-10-30T08:44:49.757Z,94557.20
2023-10-30T08:47:19.649Z,94554.14
2023-10-30T08:49:48.545Z,94554.35
2023-10-30T08:52:16.476Z,94551.55
2023-10-30T08:54:44.305Z,94549.13
2023-10-30T08:57:17.819Z,94549.50
2023-10-30T08:59:46.745Z,94550.25
2023-10-30T09:02:15.089Z,94547.74
2023-10-30T09:04:43.450Z,94544.54
2023-10-30T09:07:11.697Z,94548.74
2023-10-30T09:09:39.659Z,94556.05
2023-10-30T09:12:07.839Z,94561.53
2023-10-30T09:14:35.838Z,94565.39
2023-10-30T09:17:03.611Z,94557.84
2023-10-30T09:19:31.649Z,94555.52
2023-10-30T09:21:59.597Z,94561.30
2023-10-30T09:24:27.924Z,94559.89
2023-10-30T09:26:55.952Z,94547.66
2023-10-30T09:29:25.533Z,94545.27
2023-10-30T09:31:53.565Z,94547.35
2023-10-30T09:34:22.717Z,94537.62
2023-10-30T09:36:51.364Z,94529.85
2023-10-30T09:39:19.131Z,94524.81
2023-10-30T09:41:47.957Z,94519.28
2023-10-30T09:44:16.724Z,94508.80
2023-10-30T09:46:46.224Z,94514.08
2023-10-30T09:49:16.234Z,94516.23
2023-10-30T09:51:46.978Z,94519.07
2023-10-30T09:54:15.868Z,94525.13
2023-10-30T09:56:45.989Z,94524.36
2023-10-30T09:59:17.554Z,94516.58
2023-10-30T10:01:45.855Z,94511.31
2023-10-30T10:04:13.891Z,94505.91
2023-10-30T10:06:43.488Z,94493.88
2023-10-30T10:09:11.423Z,94492.35
2023-10-30T10:11:39.579Z,94480.30
2023-10-30T10:14:08.051Z,94468.45
2023-10-30T10:16:37.006Z,94456.34
2023-10-30T10:19:21.114Z,94451.94
2023-10-30T10:21:51.218Z,94452.45
2023-10-30T10:24:30.147Z,94460.05
2023-10-30T10:27:03.601Z,94464.91
2023-10-30T10:29:35.017Z,94471.78
2023-10-30T10:32:03.199Z,94476.30
2023-10-30T10:34:34.904Z,94480.69
2023-10-30T10:37:03.933Z,94482.13
2023-10-30T10:39:52.503Z,94484.70
2023-10-30T10:42:22.128Z,94490.13
2023-10-30T10:44:52.720Z,94497.95
2023-10-30T10:47:22.399Z,94497.21
2023-10-30T10:49:51.778Z,94499.15
2023-10-30T10:52:23.380Z,94500.65
2023-10-30T10:55:04.593Z,94499.67
2023-10-30T10:57:41.070Z,94489.06
2023-10-30T11:00:12.587Z,94482.80
2023-10-30T11:02:41.301Z,94478.73
2023-10-30T11:05:10.536Z,94475.95
2023-10-30T11:07:48.007Z,94475.35
2023-10-30T11:10:31.241Z,94471.24
2023-10-30T11:13:35.239Z,94469.24
2023-10-30T11:16:19.242Z,94467.45
2023-10-30T11:18:47.406Z,94466.81
2023-10-30T11:21:19.048Z,94464.91
2023-10-30T11:24:00.696Z,94463.27
2023-10-30T11:26:45.134Z,94458.82
2023-10-30T11:29:18.656Z,94454.36
2023-10-30T11:32:05.105Z,94456.00
2023-10-30T11:34:36.034Z,94448.08
2023-10-30T11:37:12.279Z,94437.79
2023-10-30T11:39:41.687Z,94433.40
2023-10-30T11:42:25.858Z,94431.17
2023-10-30T11:45:18.602Z,94425.11
2023-10-30T11:47:49.349Z,94431.26
2023-10-30T11:50:22.278Z,94431.34
2023-10-30T11:52:52.001Z,94431.00
2023-10-30T11:55:21.006Z,94424.38
2023-10-30T11:57:49.472Z,94423.77
2023-10-30T12:00:18.197Z,94428.25
2023-10-30T12:02:48.169Z,94423.63
2023-10-30T12:05:16.284Z,94420.05
2023-10-30T12:07:44.118Z,94424.17
2023-10-30T12:10:11.858Z,94423.11
2023-10-30T12:12:41.288Z,94418.02
2023-10-30T12:15:10.583Z,94418.36
2023-10-30T12:17:41.044Z,94414.38
2023-10-30T12:20:10.516Z,94396.25
2023-10-30T12:22:43.200Z,94380.11
2023-10-30T12:25:18.230Z,94371.80
2023-10-30T12:27:46.285Z,94366.66
2023-10-30T12:30:15.778Z,94358.40
2023-10-30T12:32:53.306Z,94341.31
2023-10-30T12:35:21.261Z,94331.91
2023-10-30T12:37:49.246Z,94334.57
2023-10-30T12:40:17.244Z,94340.78
2023-10-30T12:42:47.592Z,94346.52
2023-10-30T12:45:18.826Z,94343.98
2023-10-30T12:47:51.823Z,94339.59
2023-10-30T12:50:20.096Z,94337.92
2023-10-30T12:52:48.397Z,94339.10
2023-10-30T12:55:16.195Z,94347.27
2023-10-30T12:57:45.106Z,94348.15
2023-10-30T13:00:13.545Z,94350.02
2023-10-30T13:02:41.609Z,94337.77
2023-10-30T13:05:09.601Z,94329.84
2023-10-30T13:07:37.636Z,94332.92
2023-10-30T13:10:05.928Z,94325.66
2023-10-30T13:12:34.062Z,94320.84
2023-10-30T13:15:03.268Z,94319.05
2023-10-30T13:17:31.227Z,94311.96
2023-10-30T13:19:59.223Z,94295.77
2023-10-30T13:22:26.887Z,94281.55
2023-10-30T13:24:55.050Z,94275.64
2023-10-30T13:27:23.925Z,94279.83
2023-10-30T13:29:51.987Z,94286.67
2023-10-30T13:32:20.276Z,94288.15
2023-10-30T13:34:49.071Z,94281.92
2023-10-30T13:37:17.015Z,94278.74
2023-10-30T13:39:44.765Z,94280.27
2023-10-30T13:42:12.433Z,94289.56
2023-10-30T13:44:40.341Z,94292.44
2023-10-30T13:47:08.374Z,94286.20
2023-10-30T13:49:36.679Z,94279.84
2023-10-30T13:52:04.600Z,94280.77
2023-10-30T13:54:33.496Z,94281.61
2023-10-30T13:57:01.508Z,94282.19
2023-10-30T13:59:29.690Z,94275.91
2023-10-30T14:01:58.295Z,94273.90
2023-10-30T14:04:26.136Z,94259.58
2023-10-30T14:06:54.233Z,94250.44
2023-10-30T14:09:22.159Z,94248.86
2023-10-30T14:11:52.388Z,94247.39
2023-10-30T14:14:20.215Z,94253.80
2023-10-30T14:16:48.076Z,94257.87
2023-10-30T14:19:16.164Z,94257.98
2023-10-30T14:21:45.274Z,94258.04
2023-10-30T14:24:13.099Z,94253.58
2023-10-30T14:26:40.996Z,94247.91
2023-10-30T14:29:08.833Z,94238.55
2023-10-30T14:31:36.468Z,94224.88
2023-10-30T14:34:04.318Z,94214.56
2023-10-30T14:36:32.136Z,94215.33
2023-10-30T14:38:59.786Z,94226.40
2023-10-30T14:41:29.825Z,94234.64
2023-10-30T14:43:57.506Z,94249.05
2023-10-30T14:46:25.573Z,94262.77
2023-10-30T14:48:54.515Z,94264.61
2023-10-30T14:51:22.152Z,94259.88
2023-10-30T14:53:50.317Z,94255.27
2023-10-30T14:56:18.864Z,94250.74
2023-10-30T14:58:47.194Z,94248.07
2023-10-30T15:01:15.371Z,94253.64
2023-10-30T15:03:43.441Z,94260.65
2023-10-30T15:06:11.245Z,94260.35
2023-10-30T15:08:40.224Z,94259.66
2023-10-30T15:11:08.223Z,94259.43
2023-10-30T15:13:36.442Z,94249.08
2023-10-30T15:16:05.419Z,94237.02
2023-10-30T15:18:33.685Z,94239.46
2023-10-30T15:21:01.476Z,94228.98
2023-10-30T15:23:32.227Z,94228.23
2023-10-30T15:26:00.414Z,94226.56
2023-10-30T15:28:28.273Z,94236.98
2023-10-30T15:30:57.385Z,94240.88
2023-10-30T15:33:29.047Z,94235.41
2023-10-30T15:35:56.745Z,94234.42
2023-10-30T15:38:27.219Z,94227.64
2023-10-30T15:40:55.478Z,94217.29
2023-10-30T15:43:23.598Z,94213.25
2023-10-30T15:45:51.505Z,94208.13
2023-10-30T15:48:19.585Z,94204.67
2023-10-30T15:50:47.882Z,94201.61
2023-10-30T16:00:52.757Z,94182.30
2023-10-30T16:11:10.190Z,94175.84
2023-10-30T16:13:41.562Z,94172.39
2023-10-30T16:16:09.932Z,94170.97
2023-10-30T16:18:56.522Z,94158.40
2023-10-30T16:21:27.115Z,94149.79
2023-10-30T16:23:55.605Z,94149.38
2023-10-30T16:26:23.585Z,94142.66
2023-10-30T16:28:51.344Z,94141.34
2023-10-30T16:31:19.294Z,94140.64
2023-10-30T16:33:46.931Z,94136.13
2023-10-30T16:36:14.722Z,94131.02
2023-10-30T16:38:42.451Z,94133.84
2023-10-30T16:41:10.804Z,94135.10
2023-10-30T16:43:38.725Z,94124.98
2023-10-30T16:46:07.104Z,94119.71
2023-10-30T16:48:35.094Z,94114.93
2023-10-30T16:51:02.925Z,94118.80
2023-10-30T16:53:30.717Z,94115.19
2023-10-30T16:55:58.829Z,94115.69
2023-10-30T16:58:26.725Z,94117.66
2023-10-30T17:00:54.567Z,94120.70
2023-10-30T17:03:22.774Z,94126.70
2023-10-30T17:05:51.447Z,94127.27
2023-10-30T17:08:19.198Z,94124.79
2023-10-30T17:10:48.652Z,94128.39
2023-10-30T17:13:16.570Z,94139.81
2023-10-30T17:15:44.763Z,94148.48
2023-10-30T17:18:13.345Z,94153.31
2023-10-30T17:20:41.358Z,94155.75
2023-10-30T17:23:09.167Z,94149.66
2023-10-30T17:25:38.814Z,94138.84
2023-10-30T17:28:06.882Z,94124.52
2023-10-30T17:30:34.639Z,94121.49
2023-10-30T17:33:02.915Z,94118.41
2023-10-30T17:35:30.738Z,94105.23
2023-10-30T17:37:59.706Z,94102.64
2023-10-30T17:40:27.502Z,94097.27
2023-10-30T17:42:55.261Z,94088.95
2023-10-30T17:45:22.913Z,94083.31
2023-10-30T17:47:50.734Z,94075.90
2023-10-30T17:50:19.897Z,94068.95
2023-10-30T17:52:49.437Z,94068.29
2023-10-30T17:55:18.057Z,94074.29
2023-10-30T17:57:45.879Z,94076.05
2023-10-30T18:00:14.443Z,94071.42
2023-10-30T18:02:42.756Z,94065.34
2023-10-30T18:05:10.801Z,94063.59
2023-10-30T18:07:39.267Z,94063.69
2023-10-30T18:10:07.625Z,94060.42
2023-10-30T18:12:35.790Z,94053.75
2023-10-30T18:15:03.732Z,94046.53
2023-10-30T18:17:31.380Z,94042.25
2023-10-30T18:19:59.410Z,94034.00
2023-10-30T18:22:27.270Z,94039.62
2023-10-30T18:24:55.411Z,94036.80
2023-10-30T18:27:23.081Z,94027.38
2023-10-30T18:29:51.681Z,94024.60
2023-10-30T18:32:20.063Z,94017.50
2023-10-30T18:34:47.874Z,94012.61
2023-10-30T18:37:15.646Z,94005.62
2023-10-30T18:39:43.517Z,93991.61
2023-10-30T18:42:11.229Z,93987.77
2023-10-30T18:44:39.220Z,93980.73
2023-10-30T18:47:07.103Z,93978.45
2023-10-30T18:49:37.153Z,93967.88
2023-10-30T18:52:06.043Z,93964.58
2023-10-30T18:54:33.844Z,93954.84
2023-10-30T18:57:01.626Z,93951.27
2023-10-30T18:59:30.383Z,93948.02
2023-10-30T19:02:00.033Z,93951.11
2023-10-30T19:04:28.945Z,93940.55
2023-10-30T19:06:57.088Z,93921.14
2023-10-30T19:09:24.893Z,93919.70
2023-10-30T19:11:59.026Z,93923.36
2023-10-30T19:14:27.819Z,93918.34
2023-10-30T19:16:56.540Z,93915.60
2023-10-30T19:19:24.473Z,93910.20
2023-10-30T19:21:52.230Z,93909.42
2023-10-30T19:24:20.386Z,93901.27
2023-10-30T19:26:48.345Z,93901.56
2023-10-30T19:29:16.386Z,93898.09
2023-10-30T19:31:44.198Z,93898.02
2023-10-30T19:34:12.966Z,93901.25
2023-10-30T19:36:42.096Z,93894.66
2023-10-30T19:39:10.913Z,93894.20
2023-10-30T19:41:38.835Z,93886.95
2023-10-30T19:44:07.049Z,93887.58
2023-10-30T19:46:39.088Z,93885.48
2023-10-30T19:49:09.613Z,93881.69
2023-10-30T19:51:46.491Z,93881.20
2023-10-30T19:54:19.883Z,93874.29
2023-10-30T19:56:47.756Z,93869.64
2023-10-30T19:59:16.589Z,93860.77
2023-10-30T20:01:45.015Z,93857.63
2023-10-30T20:04:12.596Z,93843.93
2023-10-30T20:06:40.633Z,93839.48
2023-10-30T20:09:09.200Z,93820.55
2023-10-30T20:11:37.115Z,93828.76
2023-10-30T20:14:05.217Z,93821.34
2023-10-30T20:16:33.860Z,93821.30
2023-10-30T20:19:01.627Z,93821.99
2023-10-30T20:21:30.074Z,93820.53
2023-10-30T20:23:57.865Z,93814.39
2023-10-30T20:26:25.808Z,93809.66
2023-10-30T20:28:54.410Z,93809.50
2023-10-30T20:31:25.085Z,93807.27
2023-10-30T20:33:53.399Z,93808.81
2023-10-30T20:36:21.409Z,93810.59
2023-10-30T20:38:50.043Z,93808.23
2023-10-30T20:41:20.997Z,93802.80
2023-10-30T20:43:49.386Z,93793.27
2023-10-30T20:46:17.271Z,93789.94
2023-10-30T20:48:44.880Z,93780.79
2023-10-30T20:51:20.020Z,93776.41
2023-10-30T20:53:48.379Z,93773.71
2023-10-30T20:56:17.525Z,93772.55
2023-10-30T20:58:45.232Z,93766.48
2023-10-30T21:01:13.984Z,93754.22
2023-10-30T21:03:41.961Z,93755.44
2023-10-30T21:06:09.873Z,93745.93
2023-10-30T21:08:41.467Z,93743.85
2023-10-30T21:11:09.741Z,93742.84
2023-10-30T21:13:37.983Z,93735.19
2023-10-30T21:16:08.097Z,93735.29
2023-10-30T21:18:36.737Z,93731.77
2023-10-30T21:21:04.858Z,93728.50
2023-10-30T21:23:32.501Z,93717.14
2023-10-30T21:26:00.708Z,93709.36
2023-10-30T21:28:29.075Z,93703.73
2023-10-30T21:30:56.938Z,93694.02
2023-10-30T21:33:25.176Z,93689.87
2023-10-30T21:35:53.100Z,93680.33
2023-10-30T21:38:20.804Z,93672.82
2023-10-30T21:40:50.265Z,93663.08
2023-10-30T21:43:17.967Z,93663.61
2023-10-30T21:45:46.852Z,93657.69
2023-10-30T21:48:14.665Z,93653.71
2023-10-30T21:50:42.979Z,93641.75
2023-10-30T21:53:11.320Z,93632.95
2023-10-30T21:55:39.604Z,93629.34
2023-10-30T21:58:07.871Z,93628.92
2023-10-30T22:00:38.213Z,93640.11
2023-10-30T22:03:07.142Z,93645.83
2023-10-30T22:05:34.958Z,93649.34
2023-10-30T22:08:03.554Z,93642.63
2023-10-30T22:10:31.381Z,93644.27
2023-10-30T22:13:00.207Z,93648.48
2023-10-30T22:15:28.179Z,93638.02
2023-10-30T22:17:55.855Z,93628.02
2023-10-30T22:20:28.523Z,93622.19
2023-10-30T22:22:56.882Z,93620.55
2023-10-30T22:25:25.219Z,93615.31
2023-10-30T22:27:53.493Z,93608.82
2023-10-30T22:30:22.239Z,93605.27
2023-10-30T22:32:50.871Z,93604.36
2023-10-30T22:35:19.192Z,93602.70
2023-10-30T22:37:47.356Z,93603.09
2023-10-30T22:40:15.794Z,93593.65
2023-10-30T22:42:43.690Z,93581.67
2023-10-30T22:45:11.425Z,93572.84
2023-10-30T22:47:39.327Z,93570.58
2023-10-30T22:50:08.127Z,93560.96
2023-10-30T22:52:35.954Z,93550.90
2023-10-30T22:55:04.360Z,93543.16
2023-10-30T22:57:32.133Z,93540.06
2023-10-30T22:59:59.838Z,93538.27
2023-10-30T23:02:28.407Z,93529.63
2023-10-30T23:04:56.263Z,93524.30
2023-10-30T23:07:24.700Z,93518.40
2023-10-30T23:09:52.663Z,93512.73
2023-10-30T23:12:21.023Z,93502.42
2023-10-30T23:14:49.265Z,93498.19
2023-10-30T23:17:17.939Z,93501.60
2023-10-30T23:19:46.190Z,93498.55
2023-10-30T23:22:13.961Z,93501.77
2023-10-30T23:24:42.585Z,93505.54
2023-10-30T23:27:10.700Z,93501.50
2023-10-30T23:29:38.630Z,93496.65
2023-10-30T23:32:06.612Z,93488.61
2023-10-30T23:34:36.219Z,93486.35
2023-10-30T23:37:04.989Z,93483.04
2023-10-30T23:39:33.602Z,93474.10
2023-10-30T23:42:01.377Z,93462.41
2023-10-30T23:44:30.234Z,93454.55
2023-10-30T23:46:58.708Z,93442.18
2023-10-30T23:49:26.412Z,93437.77
2023-10-30T23:51:55.209Z,93436.58
2023-10-30T23:54:27.652Z,93425.39
2023-10-30T23:56:59.770Z,93418.82
2023-10-30T23:59:27.992Z,93416.48
